Time;durP1;ratioP1;P1;durP2;ratioP2;P2;SDS_P1;SDS_P2;PMS_P1;PMS_P2;Temp;Humidity;BMP_temperature;BMP_pressure;BME280_temperature;BME280_humidity;BME280_pressure;Samples;Min_cycle;Max_cycle;Signal;HPM_P1;HPM_P2
2022/01/26 00:07:24;;;;;;;97.40;36.33;;;3.60;99.90;;;;;;5024076;28;20136;-78
2022/01/26 00:09:50;;;;;;;106.77;38.37;;;3.50;99.90;;;;;;5026090;28;20547;-78
2022/01/26 00:12:16;;;;;;;101.57;37.70;;;3.50;99.90;;;;;;5013493;28;20045;-78
2022/01/26 00:14:43;;;;;;;103.13;38.23;;;3.50;99.90;;;;;;5023274;28;20045;-79
2022/01/26 00:17:11;;;;;;;100.10;36.60;;;3.50;99.90;;;;;;5029841;28;20104;-78
2022/01/26 00:19:51;;;;;;;109.33;38.70;;;3.50;99.90;;;;;;5003050;28;20052;-78
2022/01/26 00:22:39;;;;;;;100.90;36.60;;;3.50;99.90;;;;;;5011635;28;20041;-78
2022/01/26 00:27:48;;;;;;;102.60;37.73;;;3.50;99.90;;;;;;5029509;28;20234;-78
2022/01/26 00:34:18;;;;;;;104.38;35.55;;;3.50;99.90;;;;;;5005391;28;20045;-77
2022/01/26 00:38:47;;;;;;;102.20;37.87;;;3.50;99.90;;;;;;5004111;28;20037;-78
2022/01/26 00:41:17;;;;;;;107.30;39.08;;;3.50;99.90;;;;;;5029185;28;20057;-78
2022/01/26 00:43:49;;;;;;;111.80;38.53;;;3.40;99.90;;;;;;4989118;28;20120;-78
2022/01/26 00:46:15;;;;;;;108.13;38.87;;;3.40;99.90;;;;;;4995574;28;20064;-78
2022/01/26 00:48:42;;;;;;;113.07;39.67;;;3.40;99.90;;;;;;5028613;28;20506;-78
2022/01/26 00:51:09;;;;;;;107.63;38.57;;;3.40;99.90;;;;;;5007218;28;20052;-77
2022/01/26 00:53:44;;;;;;;103.43;38.10;;;3.30;99.90;;;;;;4997845;28;20046;-78
2022/01/26 00:56:12;;;;;;;111.60;38.03;;;3.30;99.90;;;;;;5004546;28;20041;-78
2022/01/26 00:58:38;;;;;;;116.03;39.33;;;3.30;99.90;;;;;;5026929;28;20041;-78
2022/01/26 01:01:05;;;;;;;105.67;38.40;;;3.30;99.90;;;;;;5008761;28;20426;-78
2022/01/26 01:03:34;;;;;;;102.63;38.13;;;3.20;99.90;;;;;;5025230;28;20072;-78
2022/01/26 01:06:12;;;;;;;103.90;38.03;;;3.20;99.90;;;;;;5012414;28;20128;-78
2022/01/26 01:08:40;;;;;;;103.50;38.30;;;3.20;99.90;;;;;;5003984;28;20462;-77
2022/01/26 01:11:06;;;;;;;105.30;37.70;;;3.20;99.90;;;;;;5006634;28;20057;-78
2022/01/26 01:13:36;;;;;;;109.07;39.47;;;3.10;99.90;;;;;;5005701;28;20095;-78
2022/01/26 01:16:04;;;;;;;110.17;38.70;;;3.10;99.90;;;;;;4992351;28;20123;-78
2022/01/26 01:31:39;;;;;;;104.63;37.40;;;3.10;99.90;;;;;;5003505;28;20045;-78
2022/01/26 01:34:04;;;;;;;102.40;37.00;;;3.10;99.90;;;;;;5011306;28;20403;-78
2022/01/26 01:36:29;;;;;;;105.63;38.37;;;3.20;99.90;;;;;;5012278;28;20055;-78
2022/01/26 01:38:57;;;;;;;109.10;38.70;;;3.20;99.90;;;;;;5027688;28;20037;-78
2022/01/26 01:41:22;;;;;;;102.03;37.17;;;3.20;99.90;;;;;;5028236;28;20042;-78
2022/01/26 01:43:50;;;;;;;100.07;37.03;;;3.20;99.90;;;;;;5011576;28;20060;-78
2022/01/26 01:46:15;;;;;;;114.10;39.60;;;3.20;99.90;;;;;;5028368;28;20042;-78
2022/01/26 01:48:41;;;;;;;103.93;37.60;;;3.20;99.90;;;;;;5010376;28;20111;-78
2022/01/26 01:51:10;;;;;;;98.17;35.67;;;3.20;99.90;;;;;;5028033;28;20436;-78
2022/01/26 01:53:41;;;;;;;97.77;36.17;;;3.20;99.90;;;;;;5028695;28;20040;-78
2022/01/26 01:56:09;;;;;;;102.40;37.33;;;3.20;99.90;;;;;;5026856;28;20557;-78
2022/01/26 01:58:36;;;;;;;95.83;35.87;;;3.20;99.90;;;;;;5034896;22;20547;-87
2022/01/26 02:01:04;;;;;;;98.00;36.50;;;3.20;99.90;;;;;;4990448;28;20649;-84
2022/01/26 02:03:30;;;;;;;97.10;35.60;;;3.10;99.90;;;;;;4991413;28;20133;-84
2022/01/26 02:05:56;;;;;;;101.00;36.30;;;3.10;99.90;;;;;;5021023;28;20046;-83
2022/01/26 02:08:22;;;;;;;97.03;36.13;;;3.10;99.90;;;;;;4995103;28;20052;-84
2022/01/26 02:10:48;;;;;;;100.53;37.13;;;3.10;99.90;;;;;;5019786;22;20041;-82
2022/01/26 02:13:31;;;;;;;99.13;36.20;;;3.10;99.90;;;;;;4974831;28;20045;-84
2022/01/26 02:53:57;;;;;;;104.93;36.60;;;3.00;99.90;;;;;;5010587;28;20084;-84
2022/01/26 02:56:30;;;;;;;109.20;37.43;;;3.00;99.90;;;;;;5010075;28;20069;-83
2022/01/26 03:09:29;;;;;;;105.85;37.28;;;2.90;99.90;;;;;;5008110;28;20125;-83
2022/01/26 03:11:56;;;;;;;113.33;39.43;;;2.90;99.90;;;;;;5008815;28;20046;-83
2022/01/26 03:16:54;;;;;;;115.93;39.20;;;2.80;99.90;;;;;;4993263;28;20136;-83
2022/01/26 03:19:25;;;;;;;105.50;36.80;;;2.80;99.90;;;;;;4993725;28;20061;-83
2022/01/26 03:30:18;;;;;;;114.83;37.90;;;2.80;99.90;;;;;;5000467;28;20711;-83
2022/01/26 03:35:27;;;;;;;114.73;39.20;;;2.80;99.90;;;;;;4994938;28;20065;-83
2022/01/26 03:37:55;;;;;;;111.83;39.10;;;2.80;99.90;;;;;;5009163;28;20492;-83
2022/01/26 03:40:30;;;;;;;117.77;40.63;;;2.80;99.90;;;;;;4977871;28;20052;-85
2022/01/26 03:42:57;;;;;;;109.57;39.00;;;2.80;99.90;;;;;;4993521;28;20050;-83
2022/01/26 03:45:25;;;;;;;117.00;38.30;;;2.80;99.90;;;;;;5010163;28;20188;-84
2022/01/26 03:47:53;;;;;;;113.57;37.90;;;2.80;99.90;;;;;;4991558;28;20042;-83
2022/01/26 03:50:19;;;;;;;120.13;39.93;;;2.80;99.90;;;;;;5009691;28;20041;-83
2022/01/26 03:52:44;;;;;;;116.03;38.27;;;2.90;99.90;;;;;;4995299;28;20403;-83
2022/01/26 03:55:10;;;;;;;112.17;37.77;;;2.80;99.90;;;;;;4993204;28;20049;-84
2022/01/26 03:57:36;;;;;;;117.53;39.43;;;2.70;99.90;;;;;;5009607;28;20038;-83
2022/01/26 04:00:07;;;;;;;118.53;40.13;;;2.70;99.90;;;;;;4991741;28;20054;-83
2022/01/26 04:02:38;;;;;;;110.57;38.73;;;2.70;99.90;;;;;;5009771;28;20053;-83
2022/01/26 04:05:08;;;;;;;111.43;37.67;;;2.70;99.90;;;;;;5004384;28;20056;-83
2022/01/26 04:07:34;;;;;;;119.77;39.20;;;2.70;99.90;;;;;;5019978;28;20035;-82
2022/01/26 04:10:09;;;;;;;106.97;37.73;;;2.70;99.90;;;;;;5021291;28;20041;-82
2022/01/26 04:12:37;;;;;;;104.20;36.93;;;2.70;99.90;;;;;;5005927;28;20049;-83
2022/01/26 04:15:14;;;;;;;109.47;36.83;;;2.70;99.90;;;;;;4985069;28;20073;-83
2022/01/26 04:17:41;;;;;;;115.00;37.30;;;2.70;99.90;;;;;;4987363;28;20081;-85
2022/01/26 04:20:07;;;;;;;111.33;37.50;;;2.70;99.90;;;;;;4991787;28;20069;-82
2022/01/26 04:22:47;;;;;;;110.87;38.03;;;2.70;99.90;;;;;;4976091;28;20052;-83
2022/01/26 04:25:19;;;;;;;113.47;38.20;;;2.70;99.90;;;;;;4979815;28;20034;-82
2022/01/26 04:27:48;;;;;;;109.07;37.17;;;2.80;99.90;;;;;;4994724;28;20038;-82
2022/01/26 04:30:15;;;;;;;113.93;37.67;;;2.70;99.90;;;;;;5011478;28;20046;-82
2022/01/26 04:32:41;;;;;;;119.77;38.37;;;2.70;99.90;;;;;;5010268;28;20100;-82
2022/01/26 04:35:09;;;;;;;113.07;37.77;;;2.70;99.90;;;;;;4995454;28;20810;-83
2022/01/26 04:38:10;;;;;;;117.73;39.93;;;2.70;99.90;;;;;;5013045;28;20034;-82
2022/01/26 04:40:39;;;;;;;110.05;38.33;;;2.70;99.90;;;;;;5011879;28;20052;-82
2022/01/26 04:43:12;;;;;;;113.10;38.13;;;2.70;99.90;;;;;;4995208;28;20504;-84
2022/01/26 04:45:39;;;;;;;110.57;37.70;;;2.70;99.90;;;;;;4977183;28;20081;-83
2022/01/26 04:48:05;;;;;;;118.07;39.63;;;2.70;99.90;;;;;;4994667;28;20551;-83
2022/01/26 04:50:31;;;;;;;112.03;36.90;;;2.70;99.90;;;;;;4994922;28;20037;-82
2022/01/26 04:52:56;;;;;;;110.83;37.50;;;2.70;99.90;;;;;;5011070;28;20133;-82
2022/01/26 04:55:22;;;;;;;115.03;37.80;;;2.70;99.90;;;;;;4994147;28;20737;-82
2022/01/26 04:57:48;;;;;;;115.07;36.67;;;2.70;99.90;;;;;;5011512;28;20096;-83
2022/01/26 05:00:14;;;;;;;113.97;36.80;;;2.60;99.90;;;;;;5008922;28;20052;-83
2022/01/26 05:02:42;;;;;;;113.77;36.27;;;2.60;99.90;;;;;;5011979;28;20054;-83
2022/01/26 05:05:08;;;;;;;115.27;37.53;;;2.60;99.90;;;;;;4977742;28;20132;-82
2022/01/26 05:07:34;;;;;;;107.43;35.20;;;2.60;99.90;;;;;;4993081;28;20045;-82
2022/01/26 05:10:02;;;;;;;108.83;37.20;;;2.60;99.90;;;;;;5009644;28;20496;-82
2022/01/26 05:12:28;;;;;;;109.87;36.63;;;2.60;99.90;;;;;;5026744;28;20114;-83
2022/01/26 05:14:53;;;;;;;111.43;37.47;;;2.60;99.90;;;;;;4994272;28;20407;-83
2022/01/26 05:17:20;;;;;;;107.47;36.63;;;2.60;99.90;;;;;;4993055;28;20042;-83
2022/01/26 05:19:53;;;;;;;106.00;35.37;;;2.60;99.90;;;;;;4977602;28;20042;-82
2022/01/26 05:22:18;;;;;;;103.57;36.67;;;2.60;99.90;;;;;;4977735;28;20108;-83
2022/01/26 05:24:44;;;;;;;106.07;35.13;;;2.60;99.90;;;;;;5001149;28;20041;-82
2022/01/26 05:27:10;;;;;;;108.20;36.43;;;2.60;99.90;;;;;;4993847;28;20064;-83
2022/01/26 05:29:35;;;;;;;109.63;35.10;;;2.60;99.90;;;;;;5007687;28;20080;-82
2022/01/26 05:32:01;;;;;;;106.23;37.10;;;2.60;99.90;;;;;;5008751;28;20048;-82
2022/01/26 05:34:27;;;;;;;105.20;35.37;;;2.70;99.90;;;;;;4975346;28;20492;-82
2022/01/26 05:36:54;;;;;;;107.23;36.30;;;2.70;99.90;;;;;;4992595;28;20129;-85
2022/01/26 05:39:20;;;;;;;108.37;35.30;;;2.60;99.90;;;;;;4992199;28;20054;-82
2022/01/26 05:41:45;;;;;;;103.50;33.63;;;2.70;99.90;;;;;;4993711;28;20044;-82
2022/01/26 05:44:11;;;;;;;94.83;33.73;;;2.60;99.90;;;;;;4997570;28;20407;-83
2022/01/26 05:46:44;;;;;;;101.70;34.87;;;2.70;99.90;;;;;;4996584;28;20038;-83
2022/01/26 05:49:11;;;;;;;105.53;34.73;;;2.70;99.90;;;;;;4996164;28;20061;-82
2022/01/26 05:51:37;;;;;;;98.63;34.17;;;2.80;99.90;;;;;;4975488;28;20065;-83
2022/01/26 05:54:05;;;;;;;102.13;34.43;;;2.80;99.90;;;;;;4996464;28;20088;-83
2022/01/26 05:56:31;;;;;;;93.77;32.67;;;2.60;99.90;;;;;;4997018;28;20074;-84
2022/01/26 05:58:57;;;;;;;99.93;33.97;;;2.60;99.90;;;;;;4979129;28;20565;-84
2022/01/26 06:01:23;;;;;;;96.83;32.17;;;2.70;99.90;;;;;;4997209;28;20423;-84
2022/01/26 06:03:49;;;;;;;96.10;32.97;;;2.60;99.90;;;;;;4996666;28;20312;-83
2022/01/26 06:06:18;;;;;;;93.47;31.53;;;2.60;99.90;;;;;;4996913;28;20253;-82
2022/01/26 06:08:44;;;;;;;96.17;31.17;;;2.60;99.90;;;;;;4996088;28;20034;-84
2022/01/26 06:11:11;;;;;;;88.97;29.27;;;2.60;99.90;;;;;;4994265;28;20384;-83
2022/01/26 06:13:37;;;;;;;90.50;31.80;;;2.60;99.90;;;;;;4980085;28;20048;-84
2022/01/26 06:16:03;;;;;;;97.67;32.20;;;2.60;99.90;;;;;;5013248;28;20300;-87
2022/01/26 06:18:29;;;;;;;91.77;29.57;;;2.60;99.90;;;;;;5012257;28;20038;-82
2022/01/26 06:20:55;;;;;;;87.27;31.30;;;2.60;99.90;;;;;;4993681;28;20195;-83
2022/01/26 06:23:24;;;;;;;88.07;30.97;;;2.70;99.90;;;;;;4978375;28;20488;-83
2022/01/26 06:25:51;;;;;;;92.83;30.47;;;2.60;99.90;;;;;;4996570;28;20096;-83
2022/01/26 06:28:18;;;;;;;87.33;29.93;;;2.60;99.90;;;;;;4990983;28;20077;-82
2022/01/26 06:30:46;;;;;;;78.73;28.53;;;2.60;99.90;;;;;;4994323;28;20056;-82
2022/01/26 06:33:13;;;;;;;86.07;29.60;;;2.60;99.90;;;;;;4979479;28;20069;-83
2022/01/26 06:35:39;;;;;;;80.57;28.13;;;2.60;99.90;;;;;;5011764;28;20048;-82
2022/01/26 06:38:04;;;;;;;82.13;28.37;;;2.60;99.90;;;;;;4980883;28;20042;-83
2022/01/26 06:40:30;;;;;;;81.67;27.03;;;2.60;99.90;;;;;;5010230;28;20069;-83
2022/01/26 06:43:00;;;;;;;78.87;28.57;;;2.60;99.90;;;;;;4979510;28;20117;-83
2022/01/26 06:45:32;;;;;;;76.47;26.70;;;2.70;99.90;;;;;;4995685;28;20475;-83
2022/01/26 06:48:14;;;;;;;80.83;28.40;;;2.60;99.90;;;;;;4994312;28;20058;-83
2022/01/26 06:50:40;;;;;;;86.17;28.50;;;2.70;99.90;;;;;;4995346;28;20455;-83
2022/01/26 06:53:06;;;;;;;79.73;26.87;;;2.70;99.90;;;;;;5010365;28;20121;-83
2022/01/26 06:55:33;;;;;;;78.53;28.47;;;2.70;99.90;;;;;;4995125;28;20144;-84
2022/01/26 06:57:58;;;;;;;76.73;27.80;;;2.70;99.90;;;;;;5009153;28;20449;-82
2022/01/26 07:00:24;;;;;;;75.00;27.43;;;2.60;99.90;;;;;;4994786;28;20123;-83
2022/01/26 07:02:54;;;;;;;75.77;26.90;;;2.70;99.90;;;;;;4992813;28;20044;-83
2022/01/26 07:05:21;;;;;;;72.67;26.60;;;2.70;99.90;;;;;;4995280;28;20045;-82
2022/01/26 07:07:47;;;;;;;82.17;27.97;;;2.70;99.90;;;;;;4995142;28;20117;-82
2022/01/26 07:10:13;;;;;;;72.00;27.33;;;2.70;99.90;;;;;;5011324;28;20177;-83
2022/01/26 07:12:38;;;;;;;74.93;27.40;;;2.70;99.90;;;;;;4995417;28;20038;-82
2022/01/26 07:21:21;;;;;;;74.70;26.67;;;2.70;99.90;;;;;;5025898;28;20053;-83
2022/01/26 07:23:22;;;;;;;71.70;27.53;;;2.70;99.90;;;;;;4981426;28;20045;-81
2022/01/26 07:25:52;;;;;;;77.80;28.07;;;2.70;99.90;;;;;;4992947;28;20056;-83
2022/01/26 07:28:17;;;;;;;76.27;27.33;;;2.70;99.90;;;;;;4990672;28;20050;-83
2022/01/26 07:30:44;;;;;;;72.90;29.07;;;2.70;99.90;;;;;;4976298;28;20042;-82
2022/01/26 07:33:11;;;;;;;78.37;29.20;;;2.70;99.90;;;;;;4995941;28;20068;-83
2022/01/26 07:35:36;;;;;;;79.30;30.03;;;2.70;99.90;;;;;;4995111;28;20042;-83
2022/01/26 07:38:04;;;;;;;78.87;28.27;;;2.70;99.90;;;;;;5010831;28;20057;-83
2022/01/26 07:40:30;;;;;;;78.13;29.77;;;2.70;99.90;;;;;;5007473;28;20466;-82
2022/01/26 07:42:56;;;;;;;82.07;31.20;;;2.70;99.90;;;;;;5003307;28;20040;-83
2022/01/26 07:45:23;;;;;;;83.53;31.80;;;2.80;99.90;;;;;;5022744;28;20050;-83
2022/01/26 07:47:53;;;;;;;85.17;32.73;;;2.80;99.90;;;;;;4993625;28;20049;-83
2022/01/26 07:50:21;;;;;;;83.53;32.10;;;2.80;99.90;;;;;;5037492;28;20104;-84
2022/01/26 07:52:47;;;;;;;84.77;33.63;;;2.80;99.90;;;;;;5020918;28;20052;-83
2022/01/26 07:55:17;;;;;;;89.77;32.63;;;2.80;99.90;;;;;;5009973;28;20419;-82
2022/01/26 07:57:44;;;;;;;84.07;32.27;;;2.80;99.90;;;;;;4981554;28;20069;-82
2022/01/26 08:00:11;;;;;;;91.07;34.17;;;2.80;99.90;;;;;;5018789;23;20046;-88
2022/01/26 08:02:40;;;;;;;86.63;34.30;;;2.80;99.90;;;;;;5012354;28;20068;-86
2022/01/26 08:05:06;;;;;;;92.57;36.30;;;2.80;99.90;;;;;;4995377;28;20046;-85
2022/01/26 08:07:34;;;;;;;88.53;34.77;;;2.80;99.90;;;;;;5013904;28;20435;-86
2022/01/26 08:10:00;;;;;;;91.87;34.73;;;2.80;99.90;;;;;;4995823;28;20041;-86
2022/01/26 08:12:27;;;;;;;97.47;36.50;;;2.90;99.90;;;;;;5014106;28;20132;-87
2022/01/26 08:14:53;;;;;;;99.57;37.53;;;2.90;99.90;;;;;;5005493;23;20064;-78
2022/01/26 08:17:19;;;;;;;108.57;40.17;;;2.90;99.90;;;;;;5030559;28;20095;-77
2022/01/26 08:19:44;;;;;;;108.33;40.77;;;2.90;99.90;;;;;;5028380;28;20045;-79
2022/01/26 08:22:17;;;;;;;108.80;42.97;;;2.90;99.90;;;;;;5014920;28;20415;-77
2022/01/26 08:24:44;;;;;;;110.77;41.43;;;2.90;99.90;;;;;;5009709;28;20132;-78
2022/01/26 08:27:13;;;;;;;117.23;44.77;;;3.00;99.90;;;;;;4978027;28;20095;-79
2022/01/26 08:29:42;;;;;;;118.00;44.63;;;3.00;99.90;;;;;;4987022;28;20060;-78
2022/01/26 08:32:08;;;;;;;112.07;43.90;;;3.00;99.90;;;;;;4993863;28;20569;-80
2022/01/26 08:34:35;;;;;;;127.37;46.57;;;3.10;99.90;;;;;;4968483;28;20085;-78
2022/01/26 08:37:01;;;;;;;127.90;47.83;;;3.00;99.90;;;;;;5008721;28;20081;-80
2022/01/26 08:39:27;;;;;;;122.17;49.40;;;3.00;99.90;;;;;;5010272;28;20061;-78
2022/01/26 08:41:54;;;;;;;128.60;49.37;;;3.10;99.90;;;;;;4996496;28;20084;-79
2022/01/26 08:44:20;;;;;;;130.87;51.60;;;3.00;99.90;;;;;;5009675;28;20124;-78
2022/01/26 08:46:45;;;;;;;136.70;53.17;;;3.10;99.90;;;;;;4992143;28;20144;-79
2022/01/26 08:49:12;;;;;;;139.47;53.50;;;3.10;99.90;;;;;;4991284;28;20056;-79
2022/01/26 08:51:37;;;;;;;138.30;53.43;;;3.10;99.90;;;;;;4993795;28;20046;-78
2022/01/26 08:54:03;;;;;;;141.70;54.27;;;3.10;99.90;;;;;;4987135;28;20045;-79
2022/01/26 08:56:29;;;;;;;137.53;54.20;;;3.10;99.90;;;;;;5009757;28;20400;-79
2022/01/26 08:58:56;;;;;;;141.50;55.97;;;3.20;99.90;;;;;;5010109;28;20416;-79
2022/01/26 09:01:22;;;;;;;142.53;56.20;;;3.20;99.90;;;;;;4994109;28;20050;-77
2022/01/26 09:03:48;;;;;;;148.50;58.73;;;3.20;99.90;;;;;;4994430;28;20046;-77
2022/01/26 09:06:14;;;;;;;149.70;56.57;;;3.20;99.90;;;;;;4991002;28;20095;-78
2022/01/26 09:08:43;;;;;;;144.70;57.13;;;3.30;99.90;;;;;;4991746;28;20144;-79
2022/01/26 09:11:09;;;;;;;143.03;57.67;;;3.30;99.90;;;;;;4992105;28;20042;-78
2022/01/26 09:13:36;;;;;;;145.73;56.27;;;3.30;99.90;;;;;;4994883;28;20049;-79
2022/01/26 09:16:06;;;;;;;143.10;55.40;;;3.30;99.90;;;;;;4975760;28;20053;-78
2022/01/26 09:18:40;;;;;;;155.77;60.37;;;3.30;99.90;;;;;;4993089;28;20042;-77
2022/01/26 09:21:06;;;;;;;158.27;58.95;;;3.40;99.90;;;;;;4993269;28;20049;-79
2022/01/26 09:23:32;;;;;;;156.27;60.33;;;3.40;99.90;;;;;;4979604;28;20096;-79
2022/01/26 09:25:58;;;;;;;155.87;60.67;;;3.40;99.90;;;;;;4991456;28;20077;-78
2022/01/26 09:28:25;;;;;;;156.30;62.30;;;3.40;99.90;;;;;;4976597;28;20037;-78
2022/01/26 09:30:51;;;;;;;162.00;60.20;;;3.40;99.90;;;;;;4986917;28;20252;-78
2022/01/26 09:33:19;;;;;;;163.00;62.43;;;3.40;99.90;;;;;;4977735;28;20065;-79
2022/01/26 09:35:45;;;;;;;165.07;60.93;;;3.50;99.90;;;;;;4993513;28;20054;-78
2022/01/26 09:38:11;;;;;;;159.00;62.93;;;3.50;99.90;;;;;;4978123;28;20077;-78
2022/01/26 09:40:37;;;;;;;164.03;63.63;;;3.50;99.90;;;;;;4992296;28;20519;-79
2022/01/26 09:43:03;;;;;;;160.83;62.10;;;3.50;99.90;;;;;;4991980;28;20500;-78
2022/01/26 09:45:34;;;;;;;167.27;61.63;;;3.50;99.90;;;;;;4978951;28;20049;-79
2022/01/26 09:47:59;;;;;;;166.37;64.00;;;3.60;99.90;;;;;;4991729;28;20049;-78
2022/01/26 09:50:27;;;;;;;169.00;63.63;;;3.60;99.90;;;;;;5009794;28;20058;-78
2022/01/26 09:52:55;;;;;;;167.53;63.70;;;3.60;99.90;;;;;;4992457;28;20487;-77
2022/01/26 09:55:21;;;;;;;157.30;60.83;;;3.60;99.90;;;;;;4991813;28;20042;-79
2022/01/26 09:57:46;;;;;;;161.07;61.80;;;3.70;99.90;;;;;;4977335;28;20050;-78
2022/01/26 10:00:13;;;;;;;157.13;61.60;;;3.70;99.90;;;;;;4992421;28;20061;-78
2022/01/26 10:02:41;;;;;;;159.60;60.57;;;3.70;99.90;;;;;;5005684;28;20046;-79
2022/01/26 10:05:10;;;;;;;149.73;58.70;;;3.70;99.90;;;;;;4992961;28;20052;-79
2022/01/26 10:07:54;;;;;;;155.37;61.47;;;3.70;99.90;;;;;;4993170;28;20108;-79
2022/01/26 10:15:49;;;;;;;145.73;57.17;;;3.80;99.90;;;;;;4993865;28;20443;-79
2022/01/26 10:18:17;;;;;;;145.43;58.00;;;3.90;99.90;;;;;;4992103;28;20072;-79
2022/01/26 10:20:47;;;;;;;139.93;57.27;;;3.90;99.90;;;;;;4991438;28;20045;-79
2022/01/26 10:23:17;;;;;;;147.43;56.73;;;3.90;99.90;;;;;;4993609;28;20052;-79
2022/01/26 10:25:45;;;;;;;144.03;55.67;;;4.00;99.90;;;;;;4992530;28;20058;-77
2022/01/26 10:28:13;;;;;;;146.37;57.30;;;4.00;99.90;;;;;;4991117;28;20459;-78
2022/01/26 10:30:45;;;;;;;138.80;57.30;;;4.00;99.90;;;;;;4994254;28;20042;-75
2022/01/26 10:33:11;;;;;;;156.00;60.93;;;4.00;99.90;;;;;;4978985;28;20129;-78
2022/01/26 10:35:37;;;;;;;140.10;55.67;;;4.00;99.90;;;;;;4979638;28;20419;-78
2022/01/26 10:38:04;;;;;;;146.67;55.57;;;4.10;99.90;;;;;;4996599;28;20041;-78
2022/01/26 10:40:32;;;;;;;141.47;54.57;;;4.10;99.90;;;;;;4996826;28;20496;-78
2022/01/26 10:43:04;;;;;;;138.03;54.53;;;4.10;99.90;;;;;;5012556;28;20050;-78
2022/01/26 10:48:26;;;;;;;132.00;53.10;;;4.10;99.90;;;;;;4992589;28;20041;-78
2022/01/26 10:53:44;;;;;;;134.93;53.97;;;4.20;99.90;;;;;;4992781;28;20092;-78
2022/01/26 10:56:11;;;;;;;131.77;53.33;;;4.20;99.90;;;;;;4995943;28;20052;-77
2022/01/26 10:58:37;;;;;;;134.03;53.50;;;4.20;99.90;;;;;;4995472;28;20073;-76
2022/01/26 11:01:04;;;;;;;125.60;53.00;;;4.20;99.90;;;;;;5011906;28;20038;-78
2022/01/26 11:03:30;;;;;;;127.53;53.07;;;4.20;99.90;;;;;;4979718;28;20045;-79
2022/01/26 11:05:56;;;;;;;122.47;50.97;;;4.30;99.90;;;;;;5012129;28;20117;-78
2022/01/26 11:08:25;;;;;;;125.93;52.47;;;4.30;99.90;;;;;;4980995;28;20042;-79
2022/01/26 11:10:51;;;;;;;125.90;51.00;;;4.30;99.90;;;;;;4996131;28;20042;-78
2022/01/26 11:13:26;;;;;;;124.70;50.93;;;4.30;99.90;;;;;;5012702;28;20048;-79
2022/01/26 11:15:52;;;;;;;123.10;50.70;;;4.30;99.90;;;;;;5012051;28;20046;-78
2022/01/26 11:18:27;;;;;;;126.07;50.37;;;4.40;99.90;;;;;;4979200;28;20590;-79
2022/01/26 11:20:54;;;;;;;122.60;51.77;;;4.30;99.90;;;;;;4995531;28;20455;-78
2022/01/26 11:23:34;;;;;;;114.23;48.13;;;4.40;99.90;;;;;;4993971;28;20072;-79
2022/01/26 11:26:00;;;;;;;120.80;52.40;;;4.40;99.90;;;;;;4999890;28;20518;-79
2022/01/26 11:28:29;;;;;;;123.97;52.33;;;4.40;99.90;;;;;;5012359;28;20050;-79
2022/01/26 11:31:02;;;;;;;124.90;51.93;;;4.40;99.90;;;;;;4980485;28;20071;-79
2022/01/26 11:33:29;;;;;;;130.53;53.03;;;4.40;99.90;;;;;;4988871;28;20046;-79
2022/01/26 11:35:57;;;;;;;121.83;51.57;;;4.30;99.90;;;;;;4972832;28;20502;-79
2022/01/26 11:46:26;;;;;;;117.53;50.63;;;4.40;99.90;;;;;;5013437;28;20077;-78
2022/01/26 11:49:01;;;;;;;121.27;51.47;;;4.40;99.90;;;;;;4994197;28;20407;-79
2022/01/26 11:51:38;;;;;;;120.77;50.53;;;4.40;99.90;;;;;;4979435;28;20244;-79
2022/01/26 11:54:09;;;;;;;127.90;50.43;;;4.40;99.90;;;;;;4993484;28;20046;-77
2022/01/26 11:56:35;;;;;;;120.10;49.33;;;4.50;99.90;;;;;;5011015;28;20038;-78
2022/01/26 11:59:02;;;;;;;127.37;50.73;;;4.50;99.90;;;;;;4994749;28;20053;-76
2022/01/26 12:01:39;;;;;;;125.10;50.37;;;4.60;99.90;;;;;;5012693;28;20065;-78
2022/01/26 12:04:14;;;;;;;122.77;50.63;;;4.60;99.90;;;;;;5011099;28;20052;-79
2022/01/26 12:06:46;;;;;;;127.47;51.37;;;4.60;99.90;;;;;;5012716;28;20392;-78
2022/01/26 12:09:12;;;;;;;123.37;50.63;;;4.60;99.90;;;;;;5008426;28;20050;-79
2022/01/26 12:11:38;;;;;;;123.83;50.13;;;4.60;99.90;;;;;;4996602;28;20041;-79
2022/01/26 12:14:09;;;;;;;124.13;48.93;;;4.60;99.90;;;;;;4974632;28;20100;-78
2022/01/26 12:16:40;;;;;;;119.07;48.70;;;4.70;99.90;;;;;;4995251;28;20475;-78
2022/01/26 12:33:19;;;;;;;117.33;45.37;;;4.50;99.90;;;;;;5009545;28;20049;-77
2022/01/26 12:36:00;;;;;;;109.27;45.27;;;4.50;99.90;;;;;;5007202;28;20123;-79
2022/01/26 12:38:43;;;;;;;111.13;43.83;;;4.60;99.90;;;;;;5009050;28;20441;-78
2022/01/26 12:43:45;;;;;;;110.72;45.05;;;4.60;99.90;;;;;;5029341;28;20132;-78
2022/01/26 12:46:14;;;;;;;104.83;43.13;;;4.60;99.90;;;;;;5008278;28;20073;-77
2022/01/26 12:48:42;;;;;;;109.20;42.73;;;4.60;99.90;;;;;;5001235;28;20057;-79
2022/01/26 12:51:09;;;;;;;103.17;44.37;;;4.70;99.90;;;;;;4993170;28;20049;-79
2022/01/26 12:53:37;;;;;;;103.00;44.60;;;4.70;99.90;;;;;;5013474;28;20038;-80
2022/01/26 12:56:05;;;;;;;110.50;44.40;;;4.70;99.90;;;;;;5012279;28;20054;-77
2022/01/26 12:58:33;;;;;;;103.40;42.20;;;4.70;99.90;;;;;;4997435;28;20069;-80
2022/01/26 13:01:02;;;;;;;99.60;42.93;;;4.70;99.90;;;;;;4990165;28;20045;-79
2022/01/26 13:03:32;;;;;;;93.77;40.87;;;4.70;99.90;;;;;;4995937;28;20041;-77
2022/01/26 13:06:06;;;;;;;103.63;41.33;;;4.70;99.90;;;;;;4979008;28;20060;-80
2022/01/26 13:08:47;;;;;;;104.53;42.00;;;4.70;99.90;;;;;;4995739;28;20684;-77
2022/01/26 13:11:20;;;;;;;102.93;41.67;;;4.60;99.90;;;;;;4987402;28;20599;-77
2022/01/26 13:13:46;;;;;;;100.20;41.20;;;4.60;99.90;;;;;;4975529;28;20065;-79
2022/01/26 13:16:18;;;;;;;113.87;41.60;;;4.50;99.90;;;;;;4982641;28;20045;-79
2022/01/26 13:24:22;;;;;;;98.70;40.80;;;4.60;99.90;;;;;;4995011;28;20053;-78
2022/01/26 13:26:59;;;;;;;96.13;40.80;;;4.60;99.90;;;;;;5013164;28;20053;-76
2022/01/26 13:29:49;;;;;;;104.83;41.77;;;4.60;99.90;;;;;;5006357;28;20046;-78
2022/01/26 13:32:42;;;;;;;95.93;40.13;;;4.60;99.90;;;;;;5010289;28;20055;-79
2022/01/26 13:35:21;;;;;;;95.23;41.50;;;4.60;99.90;;;;;;5008392;28;20042;-78
2022/01/26 13:48:54;;;;;;;90.37;40.07;;;4.70;99.90;;;;;;5008016;28;20486;-79
2022/01/26 13:51:33;;;;;;;93.00;40.33;;;4.70;99.90;;;;;;4996910;28;20049;-78
2022/01/26 13:54:26;;;;;;;102.80;40.40;;;4.80;99.90;;;;;;4997247;28;20045;-78
2022/01/26 13:59:24;;;;;;;91.73;36.90;;;4.80;99.90;;;;;;5006698;28;20054;-79
2022/01/26 14:01:51;;;;;;;89.87;37.07;;;4.80;99.90;;;;;;5009239;28;20038;-78
2022/01/26 14:04:18;;;;;;;84.50;36.20;;;4.80;99.90;;;;;;4998110;28;20557;-79
2022/01/26 14:06:46;;;;;;;82.90;35.93;;;4.80;99.90;;;;;;4999492;28;20057;-80
2022/01/26 14:09:12;;;;;;;83.80;35.93;;;4.80;99.90;;;;;;4991441;28;20049;-80
2022/01/26 14:11:38;;;;;;;86.73;36.23;;;4.80;99.90;;;;;;5016229;28;20034;-80
2022/01/26 14:14:05;;;;;;;79.83;35.80;;;4.80;99.90;;;;;;5015636;28;20135;-78
2022/01/26 14:16:45;;;;;;;81.83;37.60;;;4.80;99.90;;;;;;4998541;28;20527;-80
2022/01/26 14:19:27;;;;;;;86.80;37.53;;;4.80;99.90;;;;;;5011605;28;20064;-80
2022/01/26 14:27:10;;;;;;;84.93;36.63;;;4.80;99.90;;;;;;5009452;28;20545;-78
2022/01/26 14:29:51;;;;;;;83.37;37.63;;;4.80;99.90;;;;;;4999973;28;20049;-77
2022/01/26 14:32:59;;;;;;;87.73;36.63;;;4.80;99.90;;;;;;4995452;28;20078;-77
2022/01/26 14:54:30;;;;;;;79.63;37.77;;;4.90;99.90;;;;;;5007496;28;20038;-77
2022/01/26 15:30:04;;;;;;;99.13;43.03;;;5.00;99.90;;;;;;5005284;28;20045;-77
2022/01/26 15:35:29;;;;;;;83.93;37.45;;;5.00;99.90;;;;;;5009045;28;20046;-78
2022/01/26 15:51:05;;;;;;;76.93;35.53;;;5.00;99.90;;;;;;5008301;28;20052;-79
2022/01/26 16:17:50;;;;;;;89.87;36.53;;;5.00;99.90;;;;;;4992039;28;20338;-79
2022/01/26 16:20:43;;;;;;;87.10;36.10;;;5.00;99.90;;;;;;5015540;28;20056;-77
2022/01/26 17:12:14;;;;;;;81.27;36.43;;;5.10;99.90;;;;;;4987116;28;20049;-77
2022/01/26 17:55:09;;;;;;;79.03;35.93;;;5.20;99.90;;;;;;5009763;28;20084;-78
2022/01/26 18:17:43;;;;;;;65.83;33.00;;;5.40;99.90;;;;;;4996714;28;20451;-78
2022/01/26 18:49:39;;;;;;;61.17;30.63;;;5.50;99.90;;;;;;5012851;28;20049;-78
2022/01/26 18:52:06;;;;;;;62.10;30.43;;;5.50;99.90;;;;;;4967678;28;20046;-76
2022/01/26 18:54:33;;;;;;;62.60;30.37;;;5.50;99.90;;;;;;5024033;28;20038;-77
2022/01/26 18:57:04;;;;;;;62.93;31.33;;;5.50;99.90;;;;;;5001808;28;20050;-79
2022/01/26 18:59:30;;;;;;;63.07;30.80;;;5.50;99.90;;;;;;4976137;28;20061;-78
2022/01/26 19:01:58;;;;;;;59.87;30.43;;;5.50;99.90;;;;;;4977885;28;20046;-77
2022/01/26 19:04:28;;;;;;;59.07;30.20;;;5.50;99.90;;;;;;4988152;28;20039;-78
2022/01/26 19:06:55;;;;;;;60.43;30.27;;;5.50;99.90;;;;;;4989815;28;20488;-78